Time;durP1;ratioP1;P1;durP2;ratioP2;P2;SDS_P1;SDS_P2;PMS_P1;PMS_P2;Temp;Humidity;BMP_temperature;BMP_pressure;BME280_temperature;BME280_humidity;BME280_pressure;Samples;Min_cycle;Max_cycle;Signal;HPM_P1;HPM_P2
2023/11/07 00:01:57;;;;;;;;;4.00;4.00;;;;;17.12;66.49;101241.16;146623;569;46010;-76
2023/11/07 00:05:01;;;;;;;;;3.00;3.00;;;;;17.11;65.57;101251.63;146618;580;46919;-77
2023/11/07 00:08:10;;;;;;;;;5.25;4.00;;;;;17.05;66.44;101242.69;146623;693;46050;-78
2023/11/07 00:11:06;;;;;;;;;9.33;4.00;;;;;17.04;66.41;101242.63;146620;569;47012;-76
2023/11/07 00:14:31;;;;;;;;;5.00;3.50;;;;;17.07;65.51;101243.66;146625;678;46021;-77
2023/11/07 00:17:26;;;;;;;;;6.75;5.50;;;;;17.08;66.65;101234.94;146620;582;47012;-78
2023/11/07 00:20:22;;;;;;;;;2.33;2.33;;;;;17.06;66.97;101243.59;146625;610;46010;-78
2023/11/07 00:23:33;;;;;;;;;1.67;1.67;;;;;17.01;65.50;101251.31;146618;600;46012;-76
2023/11/07 00:26:34;;;;;;;;;1.33;1.33;;;;;16.99;65.68;101246.84;146624;594;46010;-77
2023/11/07 00:29:46;;;;;;;;;5.25;2.00;;;;;17.03;65.50;101246.97;146618;585;46016;-84
2023/11/07 00:32:47;;;;;;;;;3.33;1.33;;;;;17.06;65.91;101247.09;146623;637;46020;-78
2023/11/07 00:35:49;;;;;;;;;3.33;2.67;;;;;17.04;66.12;101260.97;146620;566;46013;-75
2023/11/07 00:38:57;;;;;;;;;;;;;;;;;;;;;
2023/11/07 00:42:08;;;;;;;;;1.00;0.33;;;;;16.92;65.65;101260.59;146621;587;46015;-77
2023/11/07 00:45:06;;;;;;;;;1.00;0.67;;;;;16.89;66.26;101257.88;146619;577;48010;-78
2023/11/07 00:48:16;;;;;;;;;2.00;2.00;;;;;16.86;66.59;101256.03;146622;602;46016;-77
2023/11/07 00:51:12;;;;;;;;;2.00;2.00;;;;;16.88;66.47;101258.69;146620;574;46020;-78
2023/11/07 00:54:14;;;;;;;;;2.33;2.00;;;;;16.90;66.13;101262.25;146622;569;46016;-78
2023/11/07 00:57:16;;;;;;;;;0.67;0.67;;;;;16.88;65.78;101261.31;146624;579;46020;-77
2023/11/07 01:00:40;;;;;;;;;1.00;0.00;;;;;16.73;65.67;101259.91;146615;569;47016;-78
2023/11/07 01:03:54;;;;;;;;;;;;;;;;;;;;;
2023/11/07 01:07:05;;;;;;;;;2.33;1.00;;;;;16.71;66.45;101261.59;146623;609;46019;-77
2023/11/07 01:10:08;;;;;;;;;1.67;1.67;;;;;16.71;67.11;101268.56;146624;606;46020;-76
2023/11/07 01:13:07;;;;;;;;;2.33;1.00;;;;;16.71;66.72;101261.59;146619;569;47016;-75
2023/11/07 01:16:03;;;;;;;;;2.00;1.00;;;;;16.71;66.62;101266.81;146622;648;46020;-77
2023/11/07 01:18:59;;;;;;;;;1.50;1.50;;;;;16.63;67.71;101263.03;146624;649;46012;-77
2023/11/07 01:22:06;;;;;;;;;1.33;1.33;;;;;16.51;67.27;101268.75;146622;619;46010;-75
2023/11/07 01:25:04;;;;;;;;;2.33;2.00;;;;;16.40;67.32;101265.72;146620;579;46014;-77
2023/11/07 01:28:06;;;;;;;;;3.00;2.00;;;;;16.34;68.33;101262.00;146622;587;46021;-76
2023/11/07 01:31:06;;;;;;;;;1.00;1.00;;;;;16.32;68.85;101253.19;146619;749;47014;-76
2023/11/07 01:34:24;;;;;;;;;2.75;1.25;;;;;16.27;68.07;101268.75;146619;606;46021;-77
2023/11/07 01:37:24;;;;;;;;;2.33;1.00;;;;;16.21;68.74;101260.66;146619;599;47014;-77
2023/11/07 01:40:31;;;;;;;;;0.67;0.67;;;;;16.19;68.27;101264.94;146625;661;46012;-77
2023/11/07 01:43:26;;;;;;;;;2.00;1.00;;;;;16.23;68.06;101261.63;146618;618;46014;-77
2023/11/07 01:46:31;;;;;;;;;4.33;2.67;;;;;16.26;67.24;101256.50;146622;576;47010;-76
2023/11/07 01:49:32;;;;;;;;;3.33;1.33;;;;;16.26;67.46;101258.19;146620;610;46017;-75
2023/11/07 01:52:53;;;;;;;;;3.75;2.00;;;;;15.30;68.42;101109.06;146625;707;46020;-77
2023/11/07 01:56:15;;;;;;;;;2.00;2.00;;;;;16.02;68.56;101269.56;146618;641;47012;-79
2023/11/07 01:59:11;;;;;;;;;2.00;2.00;;;;;15.92;69.04;101268.31;146627;615;46010;-78
2023/11/07 02:02:23;;;;;;;;;;;;;;;;;;;;;
2023/11/07 02:05:37;;;;;;;;;1.00;1.00;;;;;15.92;69.16;101264.81;146626;578;46010;-76
2023/11/07 02:08:37;;;;;;;;;3.00;2.00;;;;;15.93;68.74;101272.72;146622;681;46012;-78
2023/11/07 02:11:35;;;;;;;;;1.00;1.00;;;;;15.92;69.15;101277.91;146621;668;46020;-76
2023/11/07 02:15:01;;;;;;;;;2.67;2.33;;;;;15.73;68.34;101254.47;146616;595;47918;-76
2023/11/07 02:18:14;;;;;;;;;1.67;1.67;;;;;15.76;69.08;101255.47;146624;584;46020;-74
2023/11/07 02:21:30;;;;;;;;;3.00;2.00;;;;;15.85;69.71;101279.34;146618;571;46019;-75
2023/11/07 02:24:30;;;;;;;;;4.00;2.75;;;;;15.84;68.72;101276.69;146624;565;46012;-74
2023/11/07 02:27:29;;;;;;;;;4.00;3.00;;;;;15.80;70.57;101283.53;146620;581;46017;-75
2023/11/07 02:30:25;;;;;;;;;4.00;2.67;;;;;14.98;69.77;101142.63;146624;598;46020;-75
2023/11/07 02:33:36;;;;;;;;;1.67;1.67;;;;;15.79;69.75;101291.31;146618;602;46016;-74
2023/11/07 02:36:56;;;;;;;;;3.67;3.00;;;;;15.82;69.19;101289.69;146622;587;46020;-79
2023/11/07 02:39:55;;;;;;;;;3.00;3.00;;;;;15.89;69.26;101288.25;146618;613;46014;-76
2023/11/07 02:42:49;;;;;;;;;3.67;2.33;;;;;15.93;70.02;101295.34;146623;671;46010;-76
2023/11/07 02:46:00;;;;;;;;;1.33;1.33;;;;;15.96;69.76;101294.59;146619;579;47012;-76
2023/11/07 02:49:01;;;;;;;;;5.00;2.67;;;;;15.99;68.92;101292.09;146624;648;47010;-74
2023/11/07 02:52:10;;;;;;;;;2.00;2.00;;;;;16.02;68.80;101297.44;146623;566;46016;-74
2023/11/07 02:55:14;;;;;;;;;1.67;0.67;;;;;16.04;69.21;101296.62;146620;631;46020;-77
2023/11/07 02:58:17;;;;;;;;;2.00;1.00;;;;;16.05;68.88;101302.78;146619;613;46012;-74
2023/11/07 03:01:21;;;;;;;;;5.25;2.25;;;;;16.00;68.88;101310.44;146623;705;46020;-74
2023/11/07 03:04:19;;;;;;;;;3.00;2.00;;;;;15.98;68.00;101312.13;146621;566;46013;-73
2023/11/07 03:07:22;;;;;;;;;3.75;2.00;;;;;15.99;68.39;101308.69;146621;658;46020;-74
2023/11/07 03:10:37;;;;;;;;;2.67;1.33;;;;;15.96;68.34;101320.75;146619;633;46016;-73
2023/11/07 03:13:43;;;;;;;;;3.33;1.00;;;;;15.93;69.27;101313.66;146624;578;46012;-74
2023/11/07 03:16:50;;;;;;;;;3.00;2.00;;;;;15.07;68.96;101173.44;146618;636;46016;-75
2023/11/07 03:19:53;;;;;;;;;3.50;2.50;;;;;15.89;69.02;101322.25;146625;702;47012;-75
2023/11/07 03:22:50;;;;;;;;;3.00;1.00;;;;;15.84;69.11;101318.53;146618;676;46016;-76
2023/11/07 03:26:04;;;;;;;;;2.00;2.00;;;;;15.81;68.03;101328.87;146622;564;47010;-75
2023/11/07 03:28:57;;;;;;;;;4.00;1.00;;;;;15.79;69.32;101331.41;146621;628;46012;-75
2023/11/07 03:31:53;;;;;;;;;4.00;1.67;;;;;15.80;69.44;101333.22;146621;608;47010;-77
2023/11/07 03:34:58;;;;;;;;;2.00;1.33;;;;;15.76;69.18;101336.53;146620;565;46014;-76
2023/11/07 03:37:59;;;;;;;;;3.00;2.75;;;;;15.73;68.43;101335.50;146619;569;46020;-79
2023/11/07 03:41:01;;;;;;;;;2.50;2.50;;;;;15.70;69.10;101339.81;146618;564;46017;-80
2023/11/07 03:44:24;;;;;;;;;4.00;1.25;;;;;14.70;69.03;101167.62;146621;611;46020;-79
2023/11/07 03:47:22;;;;;;;;;2.00;2.00;;;;;15.63;69.55;101340.34;146616;734;47012;-79
2023/11/07 03:50:31;;;;;;;;;2.50;2.00;;;;;15.62;69.02;101343.78;146621;581;46020;-75
2023/11/07 03:53:39;;;;;;;;;2.25;2.25;;;;;14.63;68.60;101175.13;146619;575;47012;-81
2023/11/07 03:56:31;;;;;;;;;2.75;2.00;;;;;15.65;70.17;101356.09;146619;577;46020;-86
2023/11/07 03:59:36;;;;;;;;;2.25;2.25;;;;;15.63;69.71;101357.75;146619;658;46016;-80
2023/11/07 04:02:32;;;;;;;;;2.00;1.00;;;;;15.58;69.75;101352.34;146621;586;47020;-79
2023/11/07 04:05:43;;;;;;;;;3.75;2.00;;;;;15.54;70.23;101352.16;146617;639;47012;-79
2023/11/07 04:09:02;;;;;;;;;2.00;1.00;;;;;15.54;68.45;101357.38;146620;591;47020;-77
2023/11/07 04:12:10;;;;;;;;;1.25;1.00;;;;;15.55;69.89;101357.44;146620;641;47017;-76
2023/11/07 04:15:25;;;;;;;;;;;;;;;;;;;;;
2023/11/07 04:18:35;;;;;;;;;;;;;;;;;;;;;
2023/11/07 04:21:40;;;;;;;;;2.50;1.00;;;;;15.50;69.72;101365.91;146619;632;47010;-77
2023/11/07 04:24:43;;;;;;;;;4.75;3.25;;;;;15.47;70.18;101364.06;146617;662;47012;-76
2023/11/07 04:27:35;;;;;;;;;2.00;2.00;;;;;15.46;69.84;101365.78;146615;569;46020;-79
2023/11/07 04:30:50;;;;;;;;;;;;;;;;;;;;;
2023/11/07 04:33:48;;;;;;;;;3.00;2.00;;;;;15.39;70.62;101373.28;146623;638;46011;-78
2023/11/07 04:37:09;;;;;;;;;3.00;1.00;;;;;15.36;70.49;101373.19;146618;647;46012;-77
2023/11/07 04:40:11;;;;;;;;;3.00;2.50;;;;;15.39;69.76;101381.12;146618;567;47020;-77
2023/11/07 04:43:22;;;;;;;;;3.00;1.33;;;;;14.41;68.69;101210.72;146618;636;47014;-79
2023/11/07 04:46:56;;;;;;;;;3.00;3.00;;;;;15.46;70.81;101404.13;146619;648;47020;-78
2023/11/07 04:49:59;;;;;;;;;4.00;2.25;;;;;15.38;68.76;101406.37;146618;637;46016;-80
2023/11/07 04:53:07;;;;;;;;;;;;;;;;;;;;;
2023/11/07 04:56:15;;;;;;;;;3.00;2.67;;;;;15.25;70.17;101404.97;146618;692;46916;-79
2023/11/07 04:59:14;;;;;;;;;2.00;1.50;;;;;15.22;70.97;101414.41;146615;594;46020;-78
2023/11/07 05:02:37;;;;;;;;;4.00;3.00;;;;;15.12;70.55;101410.50;146614;586;46017;-80
2023/11/07 05:05:48;;;;;;;;;6.00;3.00;;;;;15.12;70.93;101418.34;146621;577;46010;-72
2023/11/07 05:08:47;;;;;;;;;4.00;2.00;;;;;15.07;71.40;101422.44;146614;582;46015;-76
2023/11/07 05:11:54;;;;;;;;;3.00;3.00;;;;;15.03;70.77;101412.69;146622;652;46021;-75
2023/11/07 05:15:17;;;;;;;;;4.00;3.00;;;;;14.93;72.98;101415.75;146618;571;46016;-74
2023/11/07 05:18:18;;;;;;;;;4.67;2.00;;;;;14.88;72.42;101425.06;146621;671;47010;-75
2023/11/07 05:21:12;;;;;;;;;2.67;2.67;;;;;14.91;72.86;101436.53;146617;569;46016;-75
2023/11/07 05:24:15;;;;;;;;;4.75;2.50;;;;;14.99;72.39;101434.28;146619;662;46011;-78
2023/11/07 05:27:34;;;;;;;;;3.00;2.00;;;;;14.04;70.82;101249.91;146616;569;46016;-77
2023/11/07 05:30:30;;;;;;;;;5.75;4.50;;;;;15.22;72.35;101441.41;146614;610;46020;-78
2023/11/07 05:33:41;;;;;;;;;8.25;7.50;;;;;15.31;71.08;101448.75;146616;620;46017;-78
2023/11/07 05:36:39;;;;;;;;;5.25;3.25;;;;;15.38;71.75;101458.66;146609;564;47020;-75
2023/11/07 05:39:37;;;;;;;;;6.75;5.00;;;;;15.62;72.75;101456.19;146620;578;46918;-78
2023/11/07 05:42:43;;;;;;;;;4.25;2.00;;;;;16.24;71.06;101458.75;146619;669;46020;-77
2023/11/07 05:45:49;;;;;;;;;2.33;2.33;;;;;17.08;69.26;101465.53;146617;567;46015;-78
2023/11/07 05:48:51;;;;;;;;;6.67;4.00;;;;;18.05;67.08;101463.63;146620;564;46010;-77
2023/11/07 05:51:59;;;;;;;;;0.00;0.00;;;;;18.89;63.45;101461.00;146618;652;46915;-77
2023/11/07 05:55:04;;;;;;;;;5.00;4.00;;;;;19.77;60.69;101472.19;146623;598;47010;-78
2023/11/07 05:58:10;;;;;;;;;6.00;4.00;;;;;20.58;58.83;101472.41;146613;592;49012;-74
2023/11/07 06:01:05;;;;;;;;;3.00;3.00;;;;;21.29;56.12;101472.12;146611;573;46021;-79
2023/11/07 06:04:03;;;;;;;;;5.67;4.33;;;;;21.94;56.82;101476.84;146617;583;47012;-79
2023/11/07 06:07:04;;;;;;;;;9.67;7.33;;;;;22.53;52.78;101482.19;146622;649;47010;-78
2023/11/07 06:10:10;;;;;;;;;5.67;4.00;;;;;23.01;53.72;101481.09;146617;643;46013;-77
2023/11/07 06:13:05;;;;;;;;;3.67;2.33;;;;;23.62;51.71;101484.41;146620;571;46020;-80
2023/11/07 06:15:59;;;;;;;;;4.00;3.00;;;;;24.08;48.92;101476.00;146609;598;47915;-81
2023/11/07 06:18:58;;;;;;;;;5.00;3.00;;;;;24.51;47.57;101485.16;146619;644;47010;-79
2023/11/07 06:21:55;;;;;;;;;3.67;3.33;;;;;24.80;48.16;101492.41;146618;569;46016;-80
2023/11/07 06:24:53;;;;;;;;;5.00;2.67;;;;;25.11;47.22;101496.06;146621;576;47010;-80
2023/11/07 06:27:53;;;;;;;;;5.33;5.33;;;;;25.35;47.94;101493.50;146615;615;47014;-80
2023/11/07 06:31:03;;;;;;;;;6.67;5.00;;;;;24.61;46.79;101335.88;146610;693;48010;-81
2023/11/07 06:34:16;;;;;;;;;;;;;;;;;;;;;
2023/11/07 06:37:23;;;;;;;;;5.00;4.33;;;;;25.16;46.87;101507.59;146622;582;46012;-78
2023/11/07 06:40:24;;;;;;;;;9.00;4.33;;;;;24.95;44.07;101512.78;146633;599;46014;-79
2023/11/07 06:43:22;;;;;;;;;7.67;5.00;;;;;24.26;45.49;101521.19;146616;576;47020;-80
2023/11/07 06:46:22;;;;;;;;;5.00;5.00;;;;;23.46;47.71;101520.44;146619;638;46014;-79
2023/11/07 06:49:19;;;;;;;;;8.33;5.00;;;;;22.87;50.20;101528.50;146622;664;46010;-80
2023/11/07 06:52:25;;;;;;;;;3.67;2.00;;;;;22.52;50.11;101520.94;146615;668;46016;-80
2023/11/07 06:55:23;;;;;;;;;6.33;4.00;;;;;21.58;51.78;101404.94;146624;638;46010;-79
2023/11/07 06:58:21;;;;;;;;;5.00;4.00;;;;;22.18;52.35;101531.81;146618;563;46016;-77
2023/11/07 07:01:27;;;;;;;;;3.67;3.00;;;;;22.10;52.34;101532.56;146616;564;46021;-78
2023/11/07 07:04:22;;;;;;;;;6.33;5.00;;;;;22.08;53.27;101531.63;146613;596;49016;-78
2023/11/07 07:07:15;;;;;;;;;5.67;4.00;;;;;22.11;53.08;101547.53;146619;668;48010;-80
2023/11/07 07:10:30;;;;;;;;;6.00;5.67;;;;;22.14;53.19;101539.66;146621;631;46012;-79
2023/11/07 07:13:48;;;;;;;;;8.33;6.00;;;;;22.17;52.04;101532.69;146622;630;46020;-79
2023/11/07 07:16:40;;;;;;;;;7.67;7.00;;;;;22.08;52.21;101534.28;146616;584;47012;-79
2023/11/07 07:20:13;;;;;;;;;8.67;6.33;;;;;21.78;53.34;101479.22;146622;639;46020;-79
2023/11/07 07:23:34;;;;;;;;;;;;;;;;;;;;;
2023/11/07 07:26:52;;;;;;;;;7.33;6.00;;;;;21.60;53.42;101397.97;146622;603;47008;-79
2023/11/07 07:30:26;;;;;;;;;9.67;7.33;;;;;21.67;52.18;101375.19;146618;571;47012;-78
2023/11/07 07:33:31;;;;;;;;;7.67;5.33;;;;;22.66;52.21;101523.78;146617;569;46012;-79
2023/11/07 07:36:42;;;;;;;;;;;;;;;;;;;;;
2023/11/07 07:39:50;;;;;;;;;7.00;6.67;;;;;22.71;51.91;101532.69;146621;580;46023;-80
2023/11/07 07:46:27;;;;;;;;;8.00;6.00;;;;;22.97;52.18;101545.41;146620;577;46022;-78
2023/11/07 07:49:42;;;;;;;;;6.67;5.67;;;;;23.07;51.21;101539.34;146619;565;47014;-79
2023/11/07 07:52:56;;;;;;;;;7.33;7.00;;;;;22.22;52.06;101359.34;146615;618;46020;-79
2023/11/07 07:56:12;;;;;;;;;5.00;5.00;;;;;23.42;51.43;101545.06;146621;593;46017;-79
2023/11/07 07:59:13;;;;;;;;;6.33;4.33;;;;;23.52;49.77;101536.38;146624;576;46020;-79
2023/11/07 08:02:16;;;;;;;;;8.00;8.00;;;;;23.47;48.99;101543.38;146616;624;46017;-80
2023/11/07 08:05:27;;;;;;;;;;;;;;;;;;;;;
2023/11/07 08:08:34;;;;;;;;;9.67;7.00;;;;;23.49;51.26;101543.41;146618;686;46016;-80
2023/11/07 08:11:47;;;;;;;;;;;;;;;;;;;;;
2023/11/07 08:14:49;;;;;;;;;6.33;5.67;;;;;23.87;49.85;101543.81;146619;574;46016;-78
2023/11/07 08:17:43;;;;;;;;;8.33;6.33;;;;;24.05;50.05;101545.75;146620;666;46020;-78
2023/11/07 08:20:50;;;;;;;;;8.00;5.00;;;;;24.31;51.06;101545.09;146617;605;47012;-79
2023/11/07 08:24:15;;;;;;;;;6.00;6.00;;;;;24.53;50.68;101554.12;146622;615;46034;-76
2023/11/07 08:27:11;;;;;;;;;7.33;5.00;;;;;24.64;49.12;101532.09;146618;623;47014;-81
2023/11/07 08:30:40;;;;;;;;;5.00;4.00;;;;;24.82;48.89;101541.91;146621;639;46050;-79
2023/11/07 08:33:49;;;;;;;;;10.33;7.00;;;;;25.05;48.20;101543.81;146613;593;47915;-79
2023/11/07 08:36:47;;;;;;;;;5.00;5.00;;;;;25.25;47.56;101538.63;146616;617;46021;-79
2023/11/07 08:39:42;;;;;;;;;3.33;2.67;;;;;25.38;46.98;101539.53;146618;581;46016;-78
2023/11/07 08:42:48;;;;;;;;;4.00;2.33;;;;;25.41;47.36;101542.19;146622;582;46020;-77
2023/11/07 08:45:42;;;;;;;;;7.67;4.00;;;;;25.44;47.12;101544.88;146620;606;46012;-75
2023/11/07 08:48:34;;;;;;;;;6.00;5.00;;;;;25.49;46.88;101553.75;146623;661;46010;-79
2023/11/07 08:51:32;;;;;;;;;5.33;5.00;;;;;25.48;46.06;101558.19;146614;615;46017;-79
2023/11/07 08:54:32;;;;;;;;;4.00;3.33;;;;;24.81;45.62;101442.00;146620;563;46020;-79
2023/11/07 08:57:38;;;;;;;;;;;;;;;;;;;;;
2023/11/07 09:00:39;;;;;;;;;4.33;4.00;;;;;25.45;46.34;101563.47;146620;566;46020;-77
2023/11/07 09:03:33;;;;;;;;;6.33;5.00;;;;;25.61;46.31;101558.19;146617;572;46016;-78
2023/11/07 09:06:45;;;;;;;;;4.00;3.00;;;;;25.77;45.89;101557.34;146618;623;46021;-77
2023/11/07 09:10:04;;;;;;;;;6.00;4.00;;;;;25.96;44.88;101560.97;146618;604;46012;-78
2023/11/07 09:13:17;;;;;;;;;4.00;4.00;;;;;26.03;45.81;101547.66;146622;599;46021;-79
2023/11/07 09:16:19;;;;;;;;;5.67;4.00;;;;;26.14;46.40;101553.00;146616;597;48012;-78
2023/11/07 09:19:27;;;;;;;;;6.00;5.67;;;;;26.20;45.99;101538.78;146624;569;46012;-78
2023/11/07 09:22:19;;;;;;;;;5.33;3.67;;;;;26.22;44.61;101543.22;146619;569;46017;-77
2023/11/07 09:25:16;;;;;;;;;3.33;3.33;;;;;26.20;44.49;101536.13;146620;614;46010;-76
2023/11/07 09:28:23;;;;;;;;;6.33;6.00;;;;;26.19;45.90;101543.22;146615;655;47019;-78
2023/11/07 09:31:23;;;;;;;;;7.00;4.67;;;;;26.22;45.56;101537.91;146620;615;47012;-76
2023/11/07 09:34:29;;;;;;;;;5.33;5.33;;;;;26.22;44.83;101529.94;146619;629;47016;-78
2023/11/07 09:37:40;;;;;;;;;;;;;;;;;;;;;
2023/11/07 09:40:42;;;;;;;;;4.00;4.00;;;;;26.33;45.52;101526.41;146616;609;47016;-78
2023/11/07 09:43:38;;;;;;;;;5.00;4.33;;;;;26.49;45.90;101520.22;146620;564;47010;-78
2023/11/07 09:47:04;;;;;;;;;6.00;4.00;;;;;25.71;46.41;101358.13;146618;574;46921;-77
2023/11/07 09:49:57;;;;;;;;;6.00;4.67;;;;;26.62;45.06;101505.97;146624;621;46021;-79
2023/11/07 09:52:58;;;;;;;;;3.00;2.33;;;;;26.59;44.18;101500.66;146616;646;46016;-79
2023/11/07 09:56:13;;;;;;;;;5.00;4.00;;;;;25.09;45.32;101230.69;146620;591;46010;-78
2023/11/07 09:59:43;;;;;;;;;6.67;4.00;;;;;26.74;46.57;101490.87;146617;640;46012;-79
2023/11/07 10:02:59;;;;;;;;;4.00;4.00;;;;;26.86;46.60;101490.84;146621;636;46020;-78
2023/11/07 10:06:01;;;;;;;;;4.00;3.00;;;;;26.29;43.88;101365.09;146616;567;47917;-80
2023/11/07 10:09:23;;;;;;;;;8.33;3.00;;;;;27.09;44.57;101480.97;146614;563;48020;-77
2023/11/07 10:12:31;;;;;;;;;6.00;3.33;;;;;25.83;45.70;101240.37;146616;700;47030;-78
2023/11/07 10:15:29;;;;;;;;;2.00;2.00;;;;;27.28;42.66;101470.25;146620;579;47020;-77
2023/11/07 10:18:27;;;;;;;;;4.67;4.00;;;;;27.31;41.07;101460.47;146618;578;46015;-77
2023/11/07 10:21:51;;;;;;;;;2.67;2.00;;;;;27.25;44.74;101463.16;146621;613;46012;-78
2023/11/07 10:25:02;;;;;;;;;4.67;2.00;;;;;27.11;43.29;101475.66;146620;564;46012;-76
2023/11/07 10:28:15;;;;;;;;;1.00;0.00;;;;;27.01;42.36;101455.28;146623;696;46010;-78
2023/11/07 10:31:30;;;;;;;;;3.00;2.00;;;;;26.98;43.89;101442.88;146615;675;46016;-78
2023/11/07 10:34:33;;;;;;;;;1.67;1.00;;;;;27.00;43.29;101445.53;146620;643;46021;-76
2023/11/07 10:37:37;;;;;;;;;3.33;2.33;;;;;27.10;42.56;101450.81;146619;622;46016;-79
2023/11/07 10:40:50;;;;;;;;;4.00;2.33;;;;;27.23;44.39;101453.41;146619;590;47021;-77
2023/11/07 10:43:47;;;;;;;;;4.00;3.00;;;;;27.29;41.32;101451.63;146616;575;46016;-77
2023/11/07 10:46:47;;;;;;;;;3.00;3.00;;;;;27.38;40.90;101443.56;146618;636;46020;-81
2023/11/07 10:49:51;;;;;;;;;4.00;4.00;;;;;27.46;42.54;101447.94;146618;594;47921;-76
2023/11/07 10:52:55;;;;;;;;;4.67;2.33;;;;;27.45;41.65;101441.75;146617;565;47020;-77
2023/11/07 10:56:04;;;;;;;;;3.00;3.00;;;;;27.37;43.53;101435.56;146616;585;47017;-78
2023/11/07 10:59:34;;;;;;;;;5.00;2.67;;;;;25.67;44.83;101171.34;146617;602;46029;-75
2023/11/07 11:02:53;;;;;;;;;5.00;3.00;;;;;27.21;42.74;101436.59;146621;644;45016;-76
2023/11/07 11:05:56;;;;;;;;;4.67;3.00;;;;;27.17;41.94;101446.38;146619;571;46020;-77
2023/11/07 11:09:02;;;;;;;;;3.00;2.00;;;;;27.16;44.79;101439.25;146618;651;47014;-77
2023/11/07 11:12:04;;;;;;;;;5.33;4.67;;;;;27.15;44.12;101433.06;146618;702;46021;-76
2023/11/07 11:15:17;;;;;;;;;6.00;3.67;;;;;27.18;42.13;101425.03;146619;578;46016;-80
2023/11/07 11:18:23;;;;;;;;;6.33;3.00;;;;;27.18;43.53;101418.84;146619;652;47008;-77
2023/11/07 11:22:00;;;;;;;;;9.33;5.67;;;;;27.16;46.05;101420.63;146618;584;46016;-78
2023/11/07 11:25:58;;;;;;;;;8.00;5.00;;;;;27.10;46.10;101420.63;146621;589;47020;-76
2023/11/07 11:29:12;;;;;;;;;4.00;3.67;;;;;27.06;45.48;101419.75;146618;564;47012;-76
2023/11/07 11:32:44;;;;;;;;;4.33;4.00;;;;;25.51;45.50;101135.09;146623;606;46010;-77
2023/11/07 11:35:51;;;;;;;;;7.00;5.67;;;;;27.07;44.80;101407.31;146614;614;47016;-79
2023/11/07 11:38:53;;;;;;;;;7.33;4.00;;;;;26.94;44.92;101412.72;146621;588;47012;-77
2023/11/07 11:42:00;;;;;;;;;6.33;4.00;;;;;26.91;45.13;101412.75;146621;577;46017;-78
2023/11/07 11:45:44;;;;;;;;;7.67;5.67;;;;;25.09;46.51;101083.88;146620;589;46020;-76
2023/11/07 11:49:16;;;;;;;;;6.00;3.67;;;;;26.07;45.97;101258.84;146617;569;46014;-77
2023/11/07 11:52:39;;;;;;;;;6.00;4.00;;;;;26.78;47.15;101395.06;146618;734;47010;-77
2023/11/07 11:56:27;;;;;;;;;3.00;3.00;;;;;25.22;46.64;101124.56;146618;644;47018;-77
2023/11/07 11:59:54;;;;;;;;;3.00;3.00;;;;;26.82;46.18;101385.28;146622;586;46010;-77
2023/11/07 12:03:18;;;;;;;;;4.67;3.33;;;;;26.99;45.80;101390.53;146619;622;46013;-77
2023/11/07 12:06:25;;;;;;;;;5.67;4.33;;;;;27.12;46.12;101389.56;146624;577;46010;-78
2023/11/07 12:09:36;;;;;;;;;7.67;5.67;;;;;27.09;45.45;101386.91;146620;718;47012;-79
2023/11/07 12:12:48;;;;;;;;;5.67;3.00;;;;;26.97;45.75;101387.88;146622;656;46010;-77
2023/11/07 12:15:51;;;;;;;;;4.67;2.67;;;;;26.99;45.53;101387.88;146619;580;46042;-77
2023/11/07 12:18:58;;;;;;;;;4.33;4.33;;;;;27.07;45.31;101386.94;146617;569;46021;-79
2023/11/07 12:22:15;;;;;;;;;5.00;3.00;;;;;25.61;46.26;101109.38;146619;682;46016;-77
2023/11/07 12:25:28;;;;;;;;;4.00;3.33;;;;;27.29;45.66;101382.37;146620;567;46021;-77
2023/11/07 12:28:30;;;;;;;;;6.33;6.00;;;;;27.38;42.47;101384.06;146618;563;47012;-79
2023/11/07 12:31:39;;;;;;;;;3.33;3.33;;;;;27.35;43.63;101381.44;146621;590;47010;-78
2023/11/07 12:34:43;;;;;;;;;4.00;3.00;;;;;27.40;45.17;101379.63;146616;729;46016;-77
2023/11/07 12:37:55;;;;;;;;;4.00;3.00;;;;;27.52;44.80;101370.66;146623;632;46010;-79
2023/11/07 12:41:06;;;;;;;;;3.33;1.33;;;;;27.66;45.51;101373.19;146618;606;46012;-78
2023/11/07 12:44:22;;;;;;;;;4.33;4.00;;;;;27.82;43.86;101364.19;146620;611;46010;-79
2023/11/07 12:47:29;;;;;;;;;4.67;3.67;;;;;26.21;41.74;101091.34;146615;585;46016;-78
2023/11/07 12:50:46;;;;;;;;;6.67;3.67;;;;;27.42;42.76;101364.53;146620;723;46020;-78
2023/11/07 12:53:58;;;;;;;;;6.00;4.00;;;;;25.76;44.67;101117.25;146618;563;46016;-79
2023/11/07 12:57:03;;;;;;;;;4.00;4.00;;;;;27.23;44.02;101363.78;146624;655;46010;-80
2023/11/07 13:00:24;;;;;;;;;8.67;6.67;;;;;27.16;44.58;101364.72;146619;616;46012;-79
2023/11/07 13:03:25;;;;;;;;;4.67;4.67;;;;;27.09;45.76;101366.50;146618;619;46010;-79
2023/11/07 13:06:42;;;;;;;;;6.33;5.00;;;;;27.09;45.97;101362.97;146616;644;46016;-78
2023/11/07 13:09:57;;;;;;;;;5.67;5.00;;;;;26.32;46.04;101219.75;146620;606;46020;-80
2023/11/07 13:12:52;;;;;;;;;8.00;7.00;;;;;27.13;44.98;101356.72;146616;607;46016;-78
2023/11/07 13:15:56;;;;;;;;;5.67;4.00;;;;;26.99;44.77;101354.16;146623;667;45029;-80
2023/11/07 13:18:58;;;;;;;;;5.00;5.00;;;;;26.80;45.06;101360.50;146618;625;46012;-83
2023/11/07 13:22:01;;;;;;;;;6.00;3.67;;;;;26.58;45.49;101354.41;146619;624;46020;-83
2023/11/07 13:24:58;;;;;;;;;4.00;2.00;;;;;26.43;46.36;101360.62;146616;572;46017;-81
2023/11/07 13:28:06;;;;;;;;;2.00;0.00;;;;;26.33;45.96;101361.56;146620;595;46012;-83
2023/11/07 13:31:16;;;;;;;;;3.33;3.33;;;;;26.23;46.62;101361.59;146619;580;47012;-84
2023/11/07 13:34:16;;;;;;;;;3.33;3.00;;;;;26.19;45.87;101372.22;146620;737;46020;-82
2023/11/07 13:37:23;;;;;;;;;5.00;3.00;;;;;26.13;46.46;101364.28;146617;575;46016;-84
2023/11/07 13:40:22;;;;;;;;;3.67;3.00;;;;;26.10;46.46;101366.94;146620;573;47021;-83
2023/11/07 13:43:16;;;;;;;;;4.33;2.00;;;;;26.12;45.13;101367.81;146616;580;46016;-81
2023/11/07 13:46:20;;;;;;;;;;;;;;;;;;;;;
2023/11/07 13:49:16;;;;;;;;;2.33;2.33;;;;;26.09;44.13;101360.75;146615;682;46016;-85
2023/11/07 13:52:23;;;;;;;;;4.00;3.00;;;;;25.86;44.44;101357.22;146617;606;47012;-81
2023/11/07 13:55:23;;;;;;;;;6.00;4.00;;;;;25.65;45.13;101353.69;146620;624;46012;-82
2023/11/07 13:58:18;;;;;;;;;3.00;3.00;;;;;25.46;44.99;101363.44;146620;588;46020;-86
2023/11/07 14:01:55;;;;;;;;;3.33;2.00;;;;;25.26;46.88;101363.41;146620;643;46016;-81
2023/11/07 14:04:53;;;;;;;;;4.00;2.00;;;;;25.07;48.10;101357.16;146619;637;47010;-80
2023/11/07 14:07:55;;;;;;;;;2.33;1.33;;;;;24.85;47.42;101364.19;146619;582;46012;-80
2023/11/07 14:10:51;;;;;;;;;1.33;1.33;;;;;24.68;48.24;101359.75;146621;638;46021;-80
2023/11/07 14:13:54;;;;;;;;;3.00;2.67;;;;;24.52;49.22;101369.41;146617;609;46016;-79
2023/11/07 14:16:53;;;;;;;;;4.00;4.00;;;;;24.40;49.37;101356.97;146620;650;46021;-81
2023/11/07 14:20:17;;;;;;;;;5.00;5.00;;;;;24.31;49.12;101357.78;146620;591;46016;-81
2023/11/07 14:23:16;;;;;;;;;3.67;3.00;;;;;24.13;49.37;101365.63;146618;577;46010;-82
2023/11/07 14:26:17;;;;;;;;;7.67;5.33;;;;;23.96;50.26;101371.72;146616;671;46014;-82
2023/11/07 14:29:29;;;;;;;;;4.00;4.00;;;;;23.76;50.17;101362.75;146622;681;46010;-78
2023/11/07 14:32:30;;;;;;;;;3.00;2.00;;;;;23.62;47.11;101374.97;146617;689;46016;-83
2023/11/07 14:35:40;;;;;;;;;;;;;;;;;;;;;
2023/11/07 14:38:36;;;;;;;;;7.00;6.00;;;;;23.39;47.62;101369.47;146619;612;46013;-78
2023/11/07 14:41:35;;;;;;;;;5.33;4.33;;;;;23.29;48.22;101369.37;146619;569;46020;-81
2023/11/07 14:44:29;;;;;;;;;3.00;3.00;;;;;23.21;48.78;101368.44;146618;616;46016;-80
2023/11/07 14:47:36;;;;;;;;;4.00;3.00;;;;;23.13;49.08;101364.84;146622;730;46020;-79
2023/11/07 14:50:30;;;;;;;;;3.33;2.00;;;;;23.07;48.97;101369.19;146620;576;46032;-80
2023/11/07 14:53:34;;;;;;;;;2.67;2.67;;;;;22.99;49.92;101372.63;146613;599;47021;-78
2023/11/07 14:56:41;;;;;;;;;4.00;2.33;;;;;21.70;50.65;101160.56;146620;645;46012;-79
2023/11/07 14:59:40;;;;;;;;;4.00;3.00;;;;;22.89;50.98;101372.47;146623;600;46020;-79